Alcala de Guadaira, Spain
Current Conditions -  °F | °C
As of 5:30 AM on Wednesday 22 Oct 2014 (Local Time) from LEZL Reporting Station
Clear Clear  
Wind Chill: 70°   Ceiling: Unl
Heat Index: 70°   Visibility: 6mi
Dew Point: 55°   Wind: 6mph
Humidity: 60%   Direction: 60°ENE
Pressure: 30.21"   Gusts: NA
Location:  37.34°N, 5.84°W
Report Text: LEZL 220330Z 06005KT CAVOK 21/13 Q1023 NOSIG
Loading
Personal Weather Stations






























Interactive Weather Map
Tropical Storm Tracking
New forecast layout! Learn more

10-Day Weather Forecast

Advertisements
Track Severe Weather on mobile